Strona główna
METAR-TAF:

Lotnisko :

Doncaster Sheffield, Anglia

Port lotniczy Doncaster/Sheffield

Szerokość geograficzna: 53-29N, Długość geograficzna: 001-00W, wysokość: 17 m

Aktualna obserwacja pogody

Raport powstał 24 minut temu, godzina 23:50 UTC
Wiatr 11 kt od południowy zachód
Temperatura 16°C
Wilgotność 82%
Ciśnienie 1016 hPa
Widzialność 10 km lub więcej
Brak chmur poniżej 1500 m i brak chmur cumulonimbus

METAR: EGCN 242350Z 23011KT CAVOK 16/13 Q1016

czas: 01:14 (00:14 UTC)

Prognoza

Raport powstał 1 godzina i 14 minut temu, godzina 23:00 UTC
Prognoza ważna od 25 godzina 00 UTC do 25 godzina 24 UTC
Wiatr 9 kt od zachód
Widzialność 10 km lub więcej
Rozproszone chmury na wysokości 3500 ft

TAF: EGCN 242300Z 2500/2524 27009KT 9999 SCT035

METAR-TAF

Obserwacja i prognoza pogody dla ponad 4000 lotnisk (raport METAR i TAF).

Dostępne stacje oznaczono żółtymi i czerwonymi punktami na mapie.

Najedź kursorem aby zobaczyć nazwę stacji.

Kliknij aby zobaczyć obserwacje i prognozy pogody.

Aby zmienić mapę: kliknij na zielony przycisk z czarnym krzyżykiem, aby powiększyć; na zielony przycisk z myślnikiem, aby pomniejszyć; na zielone strzałki, aby przejść do map sąsiednich.


METAR-TAF: